createdAt,value
2023-01-05T00:32:51.098Z,60.70
2023-01-05T00:36:54.086Z,61.17
2023-01-05T00:40:57.095Z,61.00
2023-01-05T00:45:01.525Z,61.13
2023-01-05T01:58:07.325Z,6.03
2023-01-05T02:02:10.515Z,5.30
2023-01-05T02:06:15.493Z,5.55
2023-01-05T02:10:25.624Z,6.00
2023-01-05T02:14:38.244Z,6.40
2023-01-05T02:18:52.823Z,6.35
2023-01-05T02:23:32.917Z,5.70
2023-01-05T02:27:46.976Z,6.25
2023-01-05T02:31:55.979Z,60.63
2023-01-05T02:36:04.439Z,60.00
2023-01-05T02:40:14.234Z,60.40
2023-01-05T02:44:18.364Z,6.30
2023-01-05T02:48:23.091Z,60.60
2023-01-05T02:52:27.251Z,61.00
2023-01-05T02:56:35.213Z,60.05
2023-01-05T03:00:42.569Z,60.60
2023-01-05T03:04:53.644Z,60.70
2023-01-05T03:09:00.107Z,59.53
2023-01-05T03:13:25.677Z,58.40
2023-01-05T03:17:34.282Z,59.70
2023-01-05T03:21:56.423Z,60.80
2023-01-05T03:26:17.912Z,32.40
2023-01-05T03:30:40.276Z,5.80
2023-01-05T03:35:05.670Z,6.20
2023-01-05T03:39:13.048Z,6.35
2023-01-05T03:43:16.464Z,6.70
2023-01-05T12:52:17.513Z,5.90
2023-01-05T12:56:26.374Z,6.45
2023-01-05T13:00:35.090Z,6.57
2023-01-05T13:04:48.448Z,5.75
2023-01-05T13:08:57.106Z,6.10
2023-01-05T13:13:05.088Z,5.07
2023-01-05T13:17:13.850Z,5.60
2023-01-05T13:21:20.118Z,6.15
2023-01-05T13:25:26.239Z,6.20
2023-01-05T13:29:35.878Z,6.30
2023-01-05T13:34:06.060Z,6.40
2023-01-05T13:38:32.637Z,5.90
2023-01-05T13:42:53.643Z,5.80
2023-01-05T13:47:17.556Z,6.50
2023-01-05T13:51:40.912Z,6.28
2023-01-05T13:55:52.420Z,6.67
2023-01-05T14:00:06.578Z,6.90
2023-01-05T14:04:19.885Z,6.50
2023-01-05T14:08:33.678Z,6.35
2023-01-05T14:12:54.144Z,6.80
2023-01-05T14:16:57.397Z,5.80
2023-01-05T14:21:11.873Z,6.90
2023-01-05T14:25:50.278Z,6.47
2023-01-05T14:30:27.539Z,5.10
2023-01-05T14:34:32.168Z,6.00
2023-01-05T14:38:35.556Z,5.90
2023-01-05T14:42:40.346Z,5.90
2023-01-05T15:33:25.833Z,6.70
2023-01-05T15:37:32.215Z,6.70
2023-01-05T15:45:43.221Z,6.60
2023-01-05T15:49:46.891Z,7.20
2023-01-05T17:12:06.923Z,6.20
2023-01-05T17:16:12.719Z,8.30
2023-01-05T17:20:17.325Z,7.27
2023-01-05T17:32:27.699Z,7.15
2023-01-05T17:36:33.569Z,7.15
2023-01-05T17:40:36.603Z,8.10
2023-01-05T17:48:42.472Z,6.20
2023-01-05T17:52:46.810Z,7.45
2023-01-05T17:56:49.891Z,5.90
2023-01-05T18:00:52.875Z,7.85
2023-01-05T18:09:01.020Z,7.00
2023-01-05T18:17:07.357Z,7.00
2023-01-05T18:41:28.040Z,8.00
2023-01-05T19:09:57.826Z,6.30
2023-01-05T19:18:06.732Z,7.05
2023-01-05T19:30:19.996Z,7.40
2023-01-05T20:59:56.763Z,6.85
2023-01-05T21:08:04.272Z,6.20
2023-01-05T21:12:07.761Z,7.23
2023-01-05T21:16:14.819Z,7.70
2023-01-05T21:20:17.870Z,7.80
2023-01-05T22:05:13.606Z,6.70
2023-01-05T22:29:33.746Z,6.40
2023-01-05T22:53:55.947Z,7.10
2023-01-05T23:06:06.200Z,7.60
2023-01-05T23:10:10.310Z,8.03
2023-01-05T23:14:13.955Z,6.60
2023-01-05T23:22:21.151Z,6.20
2023-01-05T23:26:25.782Z,5.78
2023-01-05T23:34:33.077Z,6.60
2023-01-05T23:38:36.046Z,7.30
